My Profile
  1. Member Settings
  2. My Devices
  3. Sign Out
        More Settings
      Elev 46 ft, 58.210 °N 6.322 °W

      Melbost, GB

      Stornoway Airport Station50°

      Daily Observations

      DateTemp High/LowDew Pt High/LowHumidityWindMax WindWind GustPressurePrecip.Condition
      3/31/2016 50 °F / 27 °F 41 °F / 25 °F 82 % 20 mph - 29.86 in 0 in
      3/30/2016 50 °F / 34 °F 43 °F / 32 °F 82 % 15 mph - 29.61 in 0 in
      3/29/2016 48 °F / 30 °F 39 °F / 27 °F 82 % 14 mph - 29.3 in 0 in
      3/28/2016 50 °F / 36 °F 43 °F / 32 °F 86 % 20 mph - 29.04 in 0 in
      3/27/2016 46 °F / 39 °F 41 °F / 37 °F 86 % 30 mph - 28.88 in 0 in
      3/26/2016 46 °F / 41 °F 45 °F / 39 °F 91 % 23 mph - 28.98 in 0 in
      3/25/2016 48 °F / 37 °F 45 °F / 34 °F 85 % 41 mph - 29.45 in 0 in
      3/24/2016 50 °F / 37 °F 46 °F / 34 °F 84 % 29 mph - 29.48 in 0 in
      3/23/2016 48 °F / 43 °F 45 °F / 39 °F 85 % 23 mph - 29.78 in 0 in
      3/22/2016 52 °F / 46 °F 45 °F / 41 °F 84 % 13 mph - 29.96 in 0 in
      3/21/2016 50 °F / 45 °F 48 °F / 41 °F 89 % 21 mph - 30.05 in 0 in
      3/20/2016 50 °F / 39 °F 46 °F / 37 °F 87 % 14 mph - 30.26 in 0 in
      3/19/2016 54 °F / 39 °F 43 °F / 39 °F 83 % 13 mph - 30.42 in 0 in
      3/18/2016 52 °F / 41 °F 45 °F / 37 °F 87 % 13 mph - 30.44 in 0 in
      3/17/2016 55 °F / 32 °F 48 °F / 30 °F 89 % 13 mph - 30.46 in 0 in
      3/16/2016 59 °F / 32 °F 48 °F / 30 °F 86 % 10 mph - 30.55 in 0 in
      3/15/2016 57 °F / 34 °F 48 °F / 32 °F 86 % 12 mph - 30.56 in 0 in
      3/14/2016 55 °F / 36 °F 45 °F / 34 °F 84 % 10 mph - 30.58 in 0 in
      3/13/2016 54 °F / 46 °F 48 °F / 46 °F 92 % 22 mph - 30.42 in 0 in
      3/12/2016 50 °F / 48 °F 50 °F / 48 °F 96 % 32 mph - 30.06 in 0 in
      3/11/2016 48 °F / 46 °F 48 °F / 45 °F 95 % 28 mph - 30.01 in 0 in
      3/10/2016 48 °F / 25 °F 43 °F / 25 °F 85 % 26 mph - 30.05 in 0 in
      3/9/2016 48 °F / 28 °F 39 °F / 27 °F 83 % 8 mph - 29.69 in 0 in
      3/8/2016 48 °F / 37 °F 41 °F / 34 °F 89 % 35 mph - 29.48 in 0 in
      3/7/2016 46 °F / 32 °F 39 °F / 28 °F 85 % 18 mph - 29.8 in 0 in
      3/6/2016 43 °F / 34 °F 36 °F / 28 °F 83 % 8 mph - 29.73 in 0 in
      3/5/2016 45 °F / 30 °F 36 °F / 27 °F 82 % 22 mph - 29.82 in 0 in
      3/4/2016 48 °F / 34 °F 39 °F / 32 °F 86 % 30 mph - 29.6 in 0 in
      3/3/2016 45 °F / 34 °F 37 °F / 32 °F 82 % 15 mph - 29.52 in 0 in
      3/2/2016 43 °F / 32 °F 41 °F / 32 °F 91 % 32 mph - 29.3 in 0 in
      3/1/2016 48 °F / 34 °F 46 °F / 30 °F 92 % 24 mph - 29.23 in 0 in

      Charts

      Temperature
      Precipitation
      Wind
      essentialaccessibility.com
      We recognize our responsibility to use data and technology for good. We may use or share your data with our data vendors. Take control of your data.
      Glossary